createdAt,value
2019-05-05T00:02:38.924Z,100723.50
2019-05-05T00:05:30.129Z,100721.77
2019-05-05T00:07:59.136Z,100734.40
2019-05-05T00:10:35.896Z,100730.48
2019-05-05T00:13:21.098Z,100730.50
2019-05-05T00:16:10.775Z,100735.73
2019-05-05T00:18:41.672Z,100735.36
2019-05-05T00:21:11.586Z,100730.16
2019-05-05T00:23:40.144Z,100735.00
2019-05-05T00:26:10.064Z,100735.05
2019-05-05T00:28:39.156Z,100733.80
2019-05-05T00:31:07.711Z,100739.91
2019-05-05T00:33:38.182Z,100745.97
2019-05-05T00:36:07.863Z,100738.99
2019-05-05T00:38:36.548Z,100749.03
2019-05-05T00:41:05.501Z,100742.50
2019-05-05T00:43:36.307Z,100745.53
2019-05-05T00:46:11.198Z,100755.53
2019-05-05T00:48:46.606Z,100752.92
2019-05-05T00:51:16.831Z,100762.48
2019-05-05T00:53:45.362Z,100758.17
2019-05-05T00:56:14.499Z,100760.77
2019-05-05T00:58:50.262Z,100766.41
2019-05-05T01:01:36.480Z,100766.42
2019-05-05T01:04:05.615Z,100770.33
2019-05-05T01:06:34.652Z,100764.22
2019-05-05T01:09:06.127Z,100767.68
2019-05-05T01:11:35.574Z,100761.18
2019-05-05T01:14:05.106Z,100761.19
2019-05-05T01:16:35.166Z,100766.42
2019-05-05T01:19:04.489Z,100761.64
2019-05-05T01:21:34.912Z,100766.42
2019-05-05T01:24:05.126Z,100766.39
2019-05-05T01:26:35.391Z,100762.09
2019-05-05T01:29:05.989Z,100762.49
2019-05-05T01:31:36.671Z,100761.20
2019-05-05T01:34:15.099Z,100762.95
2019-05-05T01:36:45.212Z,100770.33
2019-05-05T01:39:25.262Z,100773.80
2019-05-05T01:41:57.028Z,100779.02
2019-05-05T01:44:27.275Z,100782.05
2019-05-05T01:46:56.202Z,100786.81
2019-05-05T01:49:25.325Z,100784.22
2019-05-05T01:51:56.385Z,100779.91
2019-05-05T01:54:25.145Z,100783.78
2019-05-05T01:56:55.681Z,100799.83
2019-05-05T01:59:25.618Z,100794.66
2019-05-05T02:01:55.096Z,100804.17
2019-05-05T02:04:24.999Z,100798.98
2019-05-05T02:06:54.998Z,100800.72
2019-05-05T02:09:24.897Z,100800.28
2019-05-05T02:11:54.737Z,100795.09
2019-05-05T02:14:25.778Z,100792.49
2019-05-05T02:16:54.925Z,100791.62
2019-05-05T02:19:25.050Z,100787.30
2019-05-05T02:21:56.485Z,100786.00
2019-05-05T02:24:25.354Z,100789.45
2019-05-05T02:26:54.700Z,100792.48
2019-05-05T02:29:30.123Z,100795.95
2019-05-05T02:32:19.821Z,100798.98
2019-05-05T02:34:56.183Z,100805.48
2019-05-05T02:37:27.089Z,100799.00
2019-05-05T02:40:02.268Z,100801.59
2019-05-05T02:42:26.449Z,100798.56
2019-05-05T02:44:55.065Z,100792.48
2019-05-05T02:47:35.034Z,100806.36
2019-05-05T02:50:06.237Z,100808.95
2019-05-05T02:52:34.844Z,100809.39
2019-05-05T02:55:05.347Z,100812.84
2019-05-05T02:57:34.566Z,100816.75
2019-05-05T03:00:19.393Z,100819.79
2019-05-05T03:02:48.374Z,100820.67
2019-05-05T03:05:16.921Z,100818.94
2019-05-05T03:07:45.472Z,100821.95
2019-05-05T03:10:14.225Z,100813.70
2019-05-05T03:12:45.019Z,100823.25
2019-05-05T03:15:19.306Z,100819.37
2019-05-05T03:17:48.242Z,100822.85
2019-05-05T03:20:17.144Z,100817.65
2019-05-05T03:22:45.720Z,100826.31
2019-05-05T03:25:14.445Z,100833.67
2019-05-05T03:27:44.529Z,100834.56
2019-05-05T03:30:15.453Z,100835.39
2019-05-05T03:32:45.908Z,100835.42
2019-05-05T03:35:15.984Z,100834.55
2019-05-05T03:37:44.686Z,100833.68
2019-05-05T03:40:20.170Z,100834.13
2019-05-05T03:42:55.906Z,100841.52
2019-05-05T03:45:44.374Z,100845.84
2019-05-05T03:48:13.614Z,100841.06
2019-05-05T03:50:44.513Z,100844.97
2019-05-05T03:53:13.975Z,100840.19
2019-05-05T03:55:43.940Z,100845.83
2019-05-05T03:58:14.518Z,100846.69
2019-05-05T04:01:17.611Z,100841.89
2019-05-05T04:03:48.386Z,100852.33
2019-05-05T04:06:19.669Z,100849.71
2019-05-05T04:08:48.199Z,100861.00
2019-05-05T04:11:18.400Z,100853.58
2019-05-05T04:13:50.074Z,100861.13
2019-05-05T04:16:25.275Z,100855.79
2019-05-05T04:18:58.096Z,100857.38
2019-05-05T04:21:33.167Z,100852.73
2019-05-05T04:23:57.309Z,100849.30
2019-05-05T04:26:27.546Z,100854.73
2019-05-05T04:28:56.375Z,100854.77
2019-05-05T04:31:24.915Z,100856.18
2019-05-05T04:33:54.872Z,100861.64
2019-05-05T04:36:23.663Z,100874.03
2019-05-05T04:38:54.360Z,100885.95
2019-05-05T04:41:24.562Z,100884.60
2019-05-05T04:43:55.235Z,100882.22
2019-05-05T04:46:24.615Z,100882.05
2019-05-05T04:49:00.530Z,100886.23
2019-05-05T04:51:46.992Z,100888.94
2019-05-05T04:54:29.163Z,100890.32
2019-05-05T04:56:59.194Z,100901.67
2019-05-05T04:59:27.738Z,100908.59
2019-05-05T05:01:59.182Z,100901.16
2019-05-05T05:04:55.892Z,100905.45
2019-05-05T05:07:24.709Z,100913.32
2019-05-05T05:09:54.047Z,100898.48
2019-05-05T05:12:23.688Z,100905.83
2019-05-05T05:14:54.727Z,100910.24
2019-05-05T05:17:33.731Z,100915.89
2019-05-05T05:20:04.014Z,100920.26
2019-05-05T05:22:33.462Z,100914.54
2019-05-05T05:25:04.292Z,100927.11
2019-05-05T05:27:33.595Z,100923.17
2019-05-05T05:30:02.205Z,100925.22
2019-05-05T05:32:30.760Z,100921.30
2019-05-05T05:34:59.461Z,100925.50
2019-05-05T05:37:28.196Z,100933.69
2019-05-05T05:40:03.906Z,100931.95
2019-05-05T05:42:33.564Z,100928.23
2019-05-05T05:45:20.373Z,100929.81
2019-05-05T05:48:14.433Z,100935.78
2019-05-05T05:50:57.379Z,100936.09
2019-05-05T05:53:26.028Z,100937.40
2019-05-05T05:55:54.577Z,100945.17
2019-05-05T05:58:24.513Z,100942.73
2019-05-05T06:00:56.231Z,100953.55
2019-05-05T06:03:24.786Z,100954.31
2019-05-05T06:05:55.614Z,100958.52
2019-05-05T06:08:24.417Z,100962.73
2019-05-05T06:10:54.707Z,100964.05
2019-05-05T06:13:26.439Z,100959.37
2019-05-05T06:15:54.975Z,100961.78
2019-05-05T06:18:24.304Z,100971.28
2019-05-05T06:20:53.763Z,100976.15
2019-05-05T06:23:23.995Z,100977.84
2019-05-05T06:25:55.027Z,100976.03
2019-05-05T06:28:23.653Z,100980.18
2019-05-05T06:30:54.438Z,100983.73
2019-05-05T06:33:24.158Z,100988.45
2019-05-05T06:35:53.589Z,100988.80
2019-05-05T06:38:24.424Z,100991.53
2019-05-05T06:40:59.362Z,100989.55
2019-05-05T06:44:00.561Z,100995.70
2019-05-05T06:46:34.431Z,100993.40
2019-05-05T06:49:04.361Z,100996.67
2019-05-05T06:51:33.591Z,100989.69
2019-05-05T06:54:04.748Z,100990.16
2019-05-05T06:56:34.161Z,100992.63
2019-05-05T06:59:04.454Z,100998.46
2019-05-05T07:01:34.439Z,101002.66
2019-05-05T07:04:05.037Z,100994.81
2019-05-05T07:06:36.670Z,100998.65
2019-05-05T07:09:05.808Z,100999.36
2019-05-05T07:11:34.355Z,101004.72
2019-05-05T07:14:04.277Z,101004.22
2019-05-05T07:16:34.492Z,101007.49
2019-05-05T07:19:04.339Z,101007.06
2019-05-05T07:21:34.264Z,101011.42
2019-05-05T07:24:03.964Z,101008.72
2019-05-05T07:26:34.075Z,101010.58
2019-05-05T07:29:04.571Z,101015.92
2019-05-05T07:31:34.286Z,101016.80
2019-05-05T07:34:04.711Z,101014.34
2019-05-05T07:36:37.893Z,101000.88
2019-05-05T07:39:07.127Z,100997.39
2019-05-05T07:41:35.739Z,100995.82
2019-05-05T07:44:07.453Z,100995.82
2019-05-05T07:46:36.327Z,100991.00
2019-05-05T07:49:04.899Z,100987.46
2019-05-05T07:51:35.217Z,100996.44
2019-05-05T07:54:07.110Z,100990.85
2019-05-05T07:56:35.653Z,100990.84
2019-05-05T07:59:06.155Z,100984.58
2019-05-05T08:01:34.710Z,100985.03
2019-05-05T08:04:04.559Z,100988.89
2019-05-05T08:06:33.961Z,100985.09
2019-05-05T08:09:05.531Z,100994.89
2019-05-05T08:11:34.392Z,100987.75
2019-05-05T08:14:04.036Z,100988.67
2019-05-05T08:42:59.945Z,100992.10
2019-05-05T08:45:28.690Z,100993.33
2019-05-05T08:47:57.463Z,101005.94
2019-05-05T08:50:27.494Z,101003.27
2019-05-05T08:52:58.002Z,101007.59
2019-05-05T08:55:28.446Z,101006.94
2019-05-05T08:57:56.825Z,101009.68
2019-05-05T09:00:25.557Z,101003.39
2019-05-05T09:02:54.442Z,100995.51
2019-05-05T09:05:23.819Z,100996.86
2019-05-05T09:07:54.865Z,100994.16
2019-05-05T09:10:23.754Z,101002.34
2019-05-05T09:12:54.280Z,100995.40
2019-05-05T09:15:24.264Z,101003.88
2019-05-05T09:17:54.535Z,101007.65
2019-05-05T09:20:24.216Z,101006.30
2019-05-05T09:22:53.696Z,100998.94
2019-05-05T09:25:47.063Z,100993.08
2019-05-05T09:28:34.114Z,100991.95
2019-05-05T09:31:04.287Z,100976.58
2019-05-05T09:33:34.938Z,100987.17
2019-05-05T09:36:04.645Z,100982.52
2019-05-05T09:38:34.742Z,100987.84
2019-05-05T09:41:03.922Z,100983.78
2019-05-05T09:43:34.438Z,100984.64
2019-05-05T09:46:04.108Z,100985.32
2019-05-05T09:48:33.561Z,100983.48
2019-05-05T09:51:04.185Z,100986.95
2019-05-05T09:53:34.501Z,100989.23
2019-05-05T09:56:04.096Z,100989.09
2019-05-05T09:58:34.742Z,100988.17
2019-05-05T10:01:03.983Z,100993.08
2019-05-05T10:03:34.094Z,100988.30
2019-05-05T10:06:05.006Z,100990.41
2019-05-05T10:08:34.068Z,100991.47
2019-05-05T10:11:04.105Z,100992.25
2019-05-05T10:13:33.600Z,100992.36
2019-05-05T10:16:03.963Z,100989.75
2019-05-05T10:18:35.539Z,100985.56
2019-05-05T10:21:04.649Z,100983.63
2019-05-05T10:23:35.257Z,100990.41
2019-05-05T10:26:08.241Z,100988.18
2019-05-05T10:28:36.825Z,100999.31
2019-05-05T10:31:05.431Z,100992.92
2019-05-05T10:33:38.394Z,100995.06
2019-05-05T10:36:07.016Z,100994.39
2019-05-05T10:38:37.196Z,100997.69
2019-05-05T10:41:05.776Z,100999.56
2019-05-05T10:43:34.436Z,101002.41
2019-05-05T10:46:03.965Z,101002.70
2019-05-05T10:48:33.999Z,101003.13
2019-05-05T10:51:04.226Z,101002.76
2019-05-05T10:53:32.929Z,100994.02
2019-05-05T10:56:01.679Z,100996.50
2019-05-05T10:58:30.568Z,100997.33
2019-05-05T11:01:04.227Z,100996.38
2019-05-05T11:03:34.306Z,100997.98
2019-05-05T11:06:04.507Z,100993.67
2019-05-05T11:08:34.766Z,101001.15
2019-05-05T11:11:04.235Z,100997.05
2019-05-05T11:13:34.455Z,100991.64
2019-05-05T11:16:04.055Z,100991.16
2019-05-05T11:18:34.475Z,100989.00
2019-05-05T11:21:03.994Z,100988.87
2019-05-05T11:23:34.726Z,100992.09
2019-05-05T11:26:03.892Z,100988.69
2019-05-05T11:28:33.891Z,100991.27
2019-05-05T11:31:04.454Z,100989.64
2019-05-05T11:33:45.854Z,100989.02
2019-05-05T11:36:24.630Z,100990.63
2019-05-05T11:38:53.749Z,100992.94
2019-05-05T11:41:24.297Z,100990.33
2019-05-05T11:43:53.473Z,100979.86
2019-05-05T11:46:24.829Z,100991.19
2019-05-05T11:48:54.352Z,100987.91
2019-05-05T11:51:24.991Z,100988.49
2019-05-05T11:53:55.839Z,100999.30
2019-05-05T11:56:24.533Z,101002.45
2019-05-05T11:58:54.808Z,101001.33
2019-05-05T12:01:24.313Z,101004.29
2019-05-05T12:03:53.713Z,101004.17
2019-05-05T12:06:24.497Z,101007.49
2019-05-05T12:08:52.871Z,101003.22
2019-05-05T12:11:21.433Z,101006.42
2019-05-05T12:13:50.359Z,101009.38
2019-05-05T12:16:34.501Z,101009.89
2019-05-05T12:19:06.407Z,101000.69
2019-05-05T12:21:34.967Z,101001.43
2019-05-05T12:24:14.337Z,101000.59
2019-05-05T12:26:50.682Z,101003.51
2019-05-05T12:29:28.279Z,101000.76
2019-05-05T12:31:56.826Z,100997.84
2019-05-05T12:34:25.400Z,101002.07
2019-05-05T12:36:54.188Z,101012.84
2019-05-05T12:39:22.873Z,101008.53
2019-05-05T12:41:51.627Z,101010.36
2019-05-05T12:44:28.811Z,101010.70
2019-05-05T12:47:16.035Z,101007.06
2019-05-05T12:49:44.557Z,101006.99
2019-05-05T12:52:13.953Z,101008.33
2019-05-05T12:54:44.046Z,101007.47
2019-05-05T12:57:13.650Z,101010.31
2019-05-05T12:59:44.396Z,101002.92
2019-05-05T13:02:14.265Z,101000.17
2019-05-05T13:04:43.369Z,100997.18
2019-05-05T13:07:13.643Z,101000.92
2019-05-05T13:09:44.100Z,100994.80
2019-05-05T13:12:14.814Z,100995.91
2019-05-05T13:14:43.903Z,100996.91
2019-05-05T13:17:14.165Z,100996.31
2019-05-05T13:19:56.071Z,100998.20
2019-05-05T13:22:34.619Z,100989.46
2019-05-05T13:25:21.311Z,100993.88
2019-05-05T13:27:49.869Z,100985.08
2019-05-05T13:30:20.100Z,100988.89
2019-05-05T13:32:48.654Z,100991.55
2019-05-05T13:35:17.232Z,100986.23
2019-05-05T13:37:48.298Z,100987.42
2019-05-05T13:40:16.869Z,100992.67
2019-05-05T13:42:46.788Z,100991.08
2019-05-05T13:45:25.561Z,100986.00
2019-05-05T13:47:54.180Z,100995.91
2019-05-05T13:50:34.093Z,100999.86
2019-05-05T13:53:03.929Z,101007.72
2019-05-05T13:55:34.691Z,101015.19
2019-05-05T13:58:04.764Z,101024.08
2019-05-05T14:00:33.875Z,101022.58
2019-05-05T14:03:04.057Z,101016.92
2019-05-05T14:05:34.403Z,101017.69
2019-05-05T14:08:04.986Z,101012.81
2019-05-05T14:10:33.554Z,101015.03
2019-05-05T14:13:03.745Z,101018.31
2019-05-05T14:15:34.125Z,101002.95
2019-05-05T14:18:03.838Z,100997.45
2019-05-05T14:20:34.496Z,101013.25
2019-05-05T14:23:03.856Z,101013.84
2019-05-05T14:25:33.239Z,101006.56
2019-05-05T14:28:03.915Z,100998.91
2019-05-05T14:30:45.986Z,100995.55
2019-05-05T14:33:19.538Z,100995.72
2019-05-05T14:36:00.957Z,100995.10
2019-05-05T14:38:38.015Z,101000.55
2019-05-05T14:41:06.918Z,100995.58
2019-05-05T14:43:35.467Z,100995.64
2019-05-05T14:46:04.040Z,100999.70
2019-05-05T14:48:34.066Z,100995.80
2019-05-05T14:51:03.981Z,100991.30
2019-05-05T14:53:34.709Z,100988.75
2019-05-05T14:56:04.616Z,100996.95
2019-05-05T14:58:33.312Z,100994.73
2019-05-05T15:01:04.486Z,100989.94
2019-05-05T15:03:33.724Z,100994.58
2019-05-05T15:06:07.230Z,100993.70
2019-05-05T15:08:48.427Z,100995.25
2019-05-05T15:11:36.841Z,100990.34
2019-05-05T15:14:07.167Z,100993.27
2019-05-05T15:16:37.482Z,100997.91
2019-05-05T15:19:06.041Z,100992.67
2019-05-05T15:21:36.637Z,100990.56
2019-05-05T15:24:05.193Z,100998.05
2019-05-05T15:26:34.431Z,101001.72
2019-05-05T15:29:03.378Z,100995.94
2019-05-05T15:31:34.074Z,100998.12
2019-05-05T15:34:04.102Z,100995.77
2019-05-05T15:36:33.450Z,100989.87
2019-05-05T15:39:02.163Z,100986.84
2019-05-05T15:41:30.751Z,100989.50
2019-05-05T15:43:59.471Z,100985.19
2019-05-05T15:46:28.507Z,100982.73
2019-05-05T15:48:57.055Z,100983.17
2019-05-05T15:51:27.275Z,100991.41
2019-05-05T15:53:55.838Z,100985.44
2019-05-05T15:56:24.532Z,100986.59
2019-05-05T15:58:53.400Z,100982.19
2019-05-05T16:01:23.721Z,100978.98
2019-05-05T16:03:54.202Z,100973.09
2019-05-05T16:06:23.711Z,100969.79
2019-05-05T16:08:56.294Z,100975.81
2019-05-05T16:11:23.354Z,100971.84
2019-05-05T16:13:52.144Z,100978.74
2019-05-05T16:16:27.161Z,100980.80
2019-05-05T16:19:05.505Z,100979.70
2019-05-05T16:21:44.527Z,100980.98
2019-05-05T16:24:17.870Z,100974.75
2019-05-05T16:26:46.761Z,100975.59
2019-05-05T16:29:15.313Z,100978.70
2019-05-05T16:31:44.212Z,100979.64
2019-05-05T16:34:14.279Z,100976.59
2019-05-05T16:36:43.990Z,100976.22
2019-05-05T16:39:13.837Z,100971.31
2019-05-05T16:41:43.508Z,100981.35
2019-05-05T16:44:14.120Z,100984.45
2019-05-05T16:46:43.482Z,100988.58
2019-05-05T16:49:14.020Z,100996.52
2019-05-05T16:51:48.290Z,100993.06
2019-05-05T16:54:29.354Z,100993.48
2019-05-05T16:56:58.328Z,100997.00
2019-05-05T16:59:27.069Z,100994.59
2019-05-05T17:01:55.676Z,101005.12
2019-05-05T17:04:24.510Z,101009.32
2019-05-05T17:06:54.695Z,101013.02
2019-05-05T17:09:24.026Z,101020.53
2019-05-05T17:12:10.900Z,101017.20
2019-05-05T17:14:59.516Z,101016.41
2019-05-05T17:17:46.386Z,101019.46
2019-05-05T17:20:17.297Z,101015.22
2019-05-05T17:22:49.737Z,101012.00
2019-05-05T17:25:18.466Z,101019.87
2019-05-05T17:27:50.970Z,101016.66
2019-05-05T17:30:17.477Z,101015.05
2019-05-05T17:32:46.037Z,101018.42
2019-05-05T17:35:14.761Z,101022.80
2019-05-05T17:37:44.281Z,101020.21
2019-05-05T17:40:41.034Z,101022.81
2019-05-05T17:43:25.134Z,101023.95
2019-05-05T17:45:57.592Z,101025.09
2019-05-05T17:48:34.246Z,101021.06
2019-05-05T17:51:39.240Z,101015.09
2019-05-05T17:54:21.272Z,101022.30
2019-05-05T17:56:52.375Z,101025.30
2019-05-05T17:59:20.543Z,101025.92
2019-05-05T18:01:49.097Z,101024.82
2019-05-05T18:04:17.644Z,101021.37
2019-05-05T18:07:08.532Z,101019.05
2019-05-05T18:09:55.172Z,101024.61
2019-05-05T18:12:48.822Z,101021.24
2019-05-05T18:15:36.549Z,101027.64
2019-05-05T18:18:05.776Z,101024.41
2019-05-05T18:20:34.741Z,101026.88
2019-05-05T18:23:04.771Z,101029.84
2019-05-05T18:25:34.687Z,101031.08
2019-05-05T18:28:15.825Z,101033.50
2019-05-05T18:30:33.724Z,101029.91
2019-05-05T18:33:04.079Z,101032.91
2019-05-05T18:35:33.931Z,101036.91
2019-05-05T18:38:04.092Z,101032.44
2019-05-05T18:40:33.723Z,101031.70
2019-05-05T18:43:04.862Z,101037.17
2019-05-05T18:45:35.439Z,101041.30
2019-05-05T18:48:06.791Z,101048.00
2019-05-05T18:50:36.814Z,101048.09
2019-05-05T18:53:05.398Z,101048.50
2019-05-05T18:55:36.009Z,101047.86
2019-05-05T18:58:07.774Z,101051.96
2019-05-05T19:01:16.824Z,101053.47
2019-05-05T19:04:04.247Z,101059.84
2019-05-05T19:06:59.055Z,101059.88
2019-05-05T19:09:27.788Z,101059.92
2019-05-05T19:11:58.270Z,101071.47
2019-05-05T19:14:29.952Z,101067.90
2019-05-05T19:16:59.093Z,101072.10
2019-05-05T19:19:28.009Z,101072.48
2019-05-05T19:22:00.923Z,101079.91
2019-05-05T19:24:35.155Z,101086.26
2019-05-05T19:27:03.717Z,101083.08
2019-05-05T19:29:32.397Z,101086.56
2019-05-05T19:32:01.405Z,101088.16
2019-05-05T19:34:29.939Z,101082.78
2019-05-05T19:36:58.655Z,101082.78
2019-05-05T19:39:27.229Z,101087.45
2019-05-05T19:41:55.762Z,101088.91
2019-05-05T19:44:26.148Z,101096.09
2019-05-05T19:47:25.773Z,101101.53
2019-05-05T19:50:01.577Z,101105.19
2019-05-05T19:52:30.130Z,101096.76
2019-05-05T19:54:58.662Z,101098.73
2019-05-05T19:57:28.601Z,101103.79
2019-05-05T19:59:57.563Z,101111.83
2019-05-05T20:02:28.684Z,101113.27
2019-05-05T20:04:57.404Z,101114.61
2019-05-05T20:07:25.981Z,101113.81
2019-05-05T20:09:54.879Z,101112.93
2019-05-05T20:12:23.440Z,101115.70
2019-05-05T20:14:54.531Z,101111.77
2019-05-05T20:17:35.860Z,101115.76
2019-05-05T20:20:08.521Z,101113.39
2019-05-05T20:22:37.077Z,101115.62
2019-05-05T20:25:09.288Z,101120.58
2019-05-05T20:27:37.864Z,101122.27
2019-05-05T20:30:07.041Z,101123.98
2019-05-05T20:32:44.660Z,101129.17
2019-05-05T20:35:27.621Z,101132.77
2019-05-05T20:38:04.741Z,101133.59
2019-05-05T20:40:35.830Z,101133.59
2019-05-05T20:43:07.717Z,101136.22
2019-05-05T20:45:36.421Z,101129.20
2019-05-05T20:48:04.991Z,101135.36
2019-05-05T20:50:34.299Z,101136.22
2019-05-05T20:53:04.890Z,101137.56
2019-05-05T20:55:35.880Z,101148.04
2019-05-05T20:58:04.809Z,101141.42
2019-05-05T21:00:34.728Z,101135.93
2019-05-05T21:03:04.750Z,101138.79
2019-05-05T21:05:34.499Z,101139.42
2019-05-05T21:08:04.791Z,101145.09
2019-05-05T21:10:34.777Z,101146.08
2019-05-05T21:13:04.007Z,101142.23
2019-05-05T21:15:34.095Z,101140.16
2019-05-05T21:18:04.969Z,101143.73
2019-05-05T21:20:34.681Z,101152.18
2019-05-05T21:23:17.324Z,101148.73
2019-05-05T21:25:57.306Z,101145.19
2019-05-05T21:28:27.267Z,101144.90
2019-05-05T21:30:56.176Z,101143.63
2019-05-05T21:33:24.912Z,101147.04
2019-05-05T21:35:55.041Z,101141.91
2019-05-05T21:38:27.230Z,101144.95
2019-05-05T21:41:01.241Z,101144.51
2019-05-05T21:43:31.477Z,101142.33
2019-05-05T21:46:00.062Z,101151.38
2019-05-05T21:48:30.291Z,101143.48
2019-05-05T21:51:05.426Z,101147.30
2019-05-05T21:53:40.164Z,101153.39
2019-05-05T21:56:41.445Z,101156.70
2019-05-05T21:59:09.998Z,101153.06
2019-05-05T22:01:41.192Z,101149.84
2019-05-05T22:04:12.506Z,101153.22
2019-05-05T22:06:40.126Z,101155.36
2019-05-05T22:09:09.268Z,101152.81
2019-05-05T22:11:43.467Z,101155.47
2019-05-05T22:14:13.891Z,101145.41
2019-05-05T22:16:41.953Z,101151.27
2019-05-05T22:19:10.676Z,101150.09
2019-05-05T22:21:43.863Z,101149.64
2019-05-05T22:24:19.617Z,101154.56
2019-05-05T22:26:54.166Z,101152.23
2019-05-05T22:29:24.966Z,101152.19
2019-05-05T22:31:55.169Z,101147.84
2019-05-05T22:34:24.239Z,101148.98
2019-05-05T22:36:52.826Z,101154.66
2019-05-05T22:39:21.408Z,101150.69
2019-05-05T22:41:50.548Z,101147.66
2019-05-05T22:44:21.301Z,101152.86
2019-05-05T22:46:49.841Z,101143.22
2019-05-05T22:49:18.411Z,101151.06
2019-05-05T22:51:46.968Z,101149.72
2019-05-05T22:54:18.997Z,101147.61
2019-05-05T22:56:47.550Z,101145.81
2019-05-05T22:59:19.559Z,101146.24
2019-05-05T23:01:48.282Z,101145.41
2019-05-05T23:04:35.889Z,101141.08
2019-05-05T23:07:14.306Z,101148.58
2019-05-05T23:09:44.312Z,101145.04
2019-05-05T23:12:13.709Z,101141.05
2019-05-05T23:14:43.713Z,101141.45
2019-05-05T23:17:39.440Z,101138.42
2019-05-05T23:20:30.126Z,101137.53
2019-05-05T23:23:08.815Z,101138.50
2019-05-05T23:25:45.633Z,101139.52
2019-05-05T23:28:16.040Z,101137.08
2019-05-05T23:30:46.107Z,101139.02
2019-05-05T23:33:14.841Z,101135.58
2019-05-05T23:35:45.408Z,101135.34
2019-05-05T23:38:14.429Z,101136.77
2019-05-05T23:40:47.793Z,101138.08
2019-05-05T23:43:16.329Z,101138.08
2019-05-05T23:45:45.191Z,101135.94
2019-05-05T23:48:14.377Z,101128.89
2019-05-05T23:50:46.522Z,101127.66
2019-05-05T23:53:15.073Z,101133.90
2019-05-05T23:55:44.986Z,101132.71
2019-05-05T23:58:14.446Z,101131.06
